Time;durP1;ratioP1;P1;durP2;ratioP2;P2;SDS_P1;SDS_P2;PMS_P1;PMS_P2;Temp;Humidity;BMP_temperature;BMP_pressure;BME280_temperature;BME280_humidity;BME280_pressure;Samples;Min_cycle;Max_cycle;Signal;HPM_P1;HPM_P2
2021/06/03 00:00:48;;;;;;;4.83;4.33;;;;;;;22.16;59.33;99858.50;2079181;28;20106;-55
2021/06/03 00:01:52;;;;;;;4.32;3.78;;;;;;;22.16;59.61;99865.88;2080592;28;20112;-55
2021/06/03 00:02:53;;;;;;;4.22;3.10;;;;;;;22.15;59.40;99866.94;2080937;28;20041;-54
2021/06/03 00:03:54;;;;;;;4.07;3.55;;;;;;;22.15;59.59;99865.03;2081971;28;20073;-55
2021/06/03 00:04:54;;;;;;;3.50;3.20;;;;;;;22.16;59.63;99860.38;2080238;28;20029;-53
2021/06/03 00:05:58;;;;;;;5.27;4.00;;;;;;;22.16;59.66;99866.72;2083445;28;20092;-54
2021/06/03 00:06:58;;;;;;;4.03;3.40;;;;;;;22.15;59.86;99859.53;2081108;28;20096;-55
2021/06/03 00:07:59;;;;;;;3.97;3.20;;;;;;;22.16;59.73;99863.13;2081336;28;20060;-54
2021/06/03 00:08:59;;;;;;;4.57;3.63;;;;;;;22.15;59.56;99865.03;2081788;28;20033;-54
2021/06/03 00:10:00;;;;;;;4.40;3.40;;;;;;;22.15;59.62;99870.53;2080310;28;20164;-54
2021/06/03 00:11:07;;;;;;;4.30;3.67;;;;;;;22.14;59.83;99867.94;2077333;28;20051;-54
2021/06/03 00:12:10;;;;;;;4.38;3.17;;;;;;;22.14;59.56;99874.28;2081215;28;20036;-54
2021/06/03 00:13:11;;;;;;;5.28;3.70;;;;;;;22.14;59.95;99867.94;2073271;28;20122;-55
2021/06/03 00:14:12;;;;;;;5.07;3.40;;;;;;;22.14;59.45;99874.28;2071992;28;20034;-54
2021/06/03 00:15:14;;;;;;;4.37;3.40;;;;;;;22.15;59.83;99876.00;2081713;28;20033;-55
2021/06/03 00:16:16;;;;;;;4.10;3.70;;;;;;;22.14;59.56;99873.44;2081018;28;20272;-55
2021/06/03 00:17:16;;;;;;;3.80;3.40;;;;;;;22.14;59.66;99867.94;2081602;28;20040;-55
2021/06/03 00:18:18;;;;;;;3.87;3.20;;;;;;;22.14;59.89;99874.28;2081560;28;20057;-54
2021/06/03 00:19:18;;;;;;;5.50;3.80;;;;;;;22.14;59.84;99874.28;2081611;28;20083;-55
2021/06/03 00:20:23;;;;;;;4.53;3.20;;;;;;;22.14;59.90;99874.28;2077997;28;20503;-54
2021/06/03 00:21:24;;;;;;;3.53;3.22;;;;;;;22.14;59.84;99874.28;2081914;28;20037;-56
2021/06/03 00:22:24;;;;;;;3.87;3.47;;;;;;;22.14;59.60;99874.28;2080770;28;20496;-55
2021/06/03 00:23:25;;;;;;;4.30;3.43;;;;;;;22.14;59.73;99868.78;2081843;28;20112;-53
2021/06/03 00:24:25;;;;;;;4.40;3.27;;;;;;;22.15;59.52;99875.16;2081102;28;20029;-54
2021/06/03 00:25:26;;;;;;;3.97;3.13;;;;;;;22.13;59.77;99872.59;2078704;28;20029;-55
2021/06/03 00:26:27;;;;;;;4.28;3.70;;;;;;;22.14;59.75;99868.78;2076948;28;20129;-54
2021/06/03 00:27:27;;;;;;;4.33;3.27;;;;;;;22.14;59.61;99873.44;2085731;28;20041;-55
2021/06/03 00:28:28;;;;;;;4.63;3.20;;;;;;;22.13;59.68;99877.22;2081237;28;20167;-51
2021/06/03 00:29:28;;;;;;;4.13;3.10;;;;;;;22.13;59.96;99872.59;2079588;28;20036;-55
2021/06/03 00:30:29;;;;;;;3.93;3.27;;;;;;;22.12;59.81;99876.38;2077836;28;20033;-55
2021/06/03 00:31:30;;;;;;;4.32;3.22;;;;;;;22.13;59.71;99878.06;2067874;28;20037;-56
2021/06/03 00:32:30;;;;;;;5.70;3.63;;;;;;;22.13;59.91;99878.06;2067914;28;20084;-56
2021/06/03 00:33:31;;;;;;;4.83;3.60;;;;;;;22.15;59.91;99886.16;2081583;28;20104;-56
2021/06/03 00:34:32;;;;;;;3.83;2.77;;;;;;;22.14;59.68;99887.16;2078096;28;20030;-54
2021/06/03 00:35:32;;;;;;;4.20;3.27;;;;;;;22.14;59.80;99881.66;2081572;28;20025;-54
2021/06/03 00:36:33;;;;;;;5.13;3.03;;;;;;;22.13;59.82;99889.06;2079153;28;20036;-55
2021/06/03 00:37:33;;;;;;;5.40;3.63;;;;;;;22.13;59.61;99878.06;2079258;28;20203;-54
2021/06/03 00:38:34;;;;;;;6.13;3.37;;;;;;;22.14;59.77;99882.50;2077205;28;20035;-56
2021/06/03 00:39:35;;;;;;;3.50;3.07;;;;;;;22.13;59.80;99883.56;2081135;28;20029;-55
2021/06/03 00:40:37;;;;;;;3.53;3.10;;;;;;;22.14;59.96;99881.66;2081026;28;20029;-53
2021/06/03 00:41:37;;;;;;;4.25;3.38;;;;;;;22.13;59.72;99883.56;2080276;28;20106;-54
2021/06/03 00:42:39;;;;;;;4.43;3.40;;;;;;;22.13;59.77;99879.97;2079289;28;20033;-55
2021/06/03 00:43:40;;;;;;;14.35;3.72;;;;;;;22.12;59.89;99881.88;2081889;28;20360;-55
2021/06/03 00:44:40;;;;;;;4.22;3.08;;;;;;;22.11;59.89;99877.38;2080843;28;20683;-56
2021/06/03 00:45:41;;;;;;;3.80;3.23;;;;;;;22.11;59.83;99882.88;2081736;28;20032;-54
2021/06/03 00:46:41;;;;;;;4.67;3.13;;;;;;;22.12;59.69;99883.72;2079234;28;20672;-55
2021/06/03 00:47:43;;;;;;;4.40;3.67;;;;;;;22.12;59.54;99876.38;2081504;28;20175;-56
2021/06/03 00:48:43;;;;;;;3.83;3.28;;;;;;;22.12;59.65;99881.88;2079447;28;20057;-55
2021/06/03 00:49:44;;;;;;;4.03;3.23;;;;;;;22.12;59.66;99881.88;2072069;28;20048;-55
2021/06/03 00:50:51;;;;;;;4.80;3.87;;;;;;;22.11;59.63;99877.38;2072604;28;20030;-59
2021/06/03 00:51:52;;;;;;;3.50;3.20;;;;;;;22.11;59.57;99880.13;2081160;28;20032;-55
2021/06/03 00:52:53;;;;;;;4.53;3.43;;;;;;;22.11;59.71;99879.28;2081754;28;20025;-54
2021/06/03 00:53:54;;;;;;;3.65;3.17;;;;;;;22.11;59.81;99882.88;2079101;28;20070;-53
2021/06/03 00:54:55;;;;;;;4.20;3.28;;;;;;;22.12;59.66;99880.97;2081103;28;20026;-54
2021/06/03 00:55:58;;;;;;;4.13;3.13;;;;;;;22.12;59.87;99883.72;2081191;28;20354;-55
2021/06/03 00:56:58;;;;;;;4.43;3.75;;;;;;;22.12;59.95;99886.47;2077878;28;20041;-55
2021/06/03 00:57:59;;;;;;;4.57;3.67;;;;;;;22.11;59.65;99885.63;2077824;28;20463;-54
2021/06/03 00:59:00;;;;;;;3.20;2.90;;;;;;;22.12;59.84;99884.59;2081581;28;20110;-55
2021/06/03 01:00:01;;;;;;;3.67;3.00;;;;;;;22.12;59.59;99886.47;2079129;28;20029;-55
2021/06/03 01:01:03;;;;;;;5.20;3.60;;;;;;;22.12;59.81;99890.09;2071299;28;20523;-55
2021/06/03 01:02:03;;;;;;;;;;;;;;;22.08;59.72;99885.97;2070690;28;20029;-54
2021/06/03 01:03:05;;;;;;;4.07;3.22;;;;;;;22.07;59.72;99889.72;2081412;28;19913;-55
2021/06/03 01:04:07;;;;;;;3.88;3.20;;;;;;;22.09;59.70;99886.81;2078278;28;20029;-55
2021/06/03 01:05:09;;;;;;;;;;;;;;;22.06;60.09;99893.53;2075581;28;20061;-54
2021/06/03 01:06:11;;;;;;;4.22;3.20;;;;;;;22.07;60.06;99884.25;2079016;28;19917;-55
2021/06/03 01:07:12;;;;;;;3.58;3.20;;;;;;;22.07;59.90;99889.72;2087848;28;20510;-55
2021/06/03 01:08:16;;;;;;;3.83;3.43;;;;;;;22.08;59.80;99896.09;2081179;28;20055;-55
2021/06/03 01:09:22;;;;;;;3.35;3.05;;;;;;;22.08;59.93;99891.47;2078831;28;20049;-55
2021/06/03 01:10:37;;;;;;;4.15;3.25;;;;;;;22.07;59.57;99895.22;2081338;28;20030;-54
2021/06/03 01:12:09;;;;;;;3.25;2.95;;;;;;;22.07;59.68;99892.47;2080737;28;20052;-54
2021/06/03 01:13:20;;;;;;;4.28;3.28;;;;;;;22.07;59.96;99894.38;2060151;28;20057;-54
2021/06/03 01:14:24;;;;;;;3.20;2.80;;;;;;;22.08;59.81;99893.34;2075935;28;20025;-54
2021/06/03 01:15:26;;;;;;;6.07;3.80;;;;;;;22.08;59.82;99896.09;2081344;28;20025;-55
2021/06/03 01:16:29;;;;;;;3.47;3.15;;;;;;;22.07;59.84;99892.47;2080962;28;20439;-55
2021/06/03 01:17:30;;;;;;;6.50;3.10;;;;;;;22.08;59.98;99891.47;2082412;28;20043;-55
2021/06/03 01:18:37;;;;;;;5.20;2.90;;;;;;;22.08;59.93;99896.97;2080642;28;20051;-53
2021/06/03 01:19:41;;;;;;;3.30;2.85;;;;;;;22.08;60.03;99891.47;2082014;28;20048;-53
2021/06/03 01:20:47;;;;;;;5.28;4.00;;;;;;;22.07;59.89;99891.63;2079878;28;20052;-53
2021/06/03 01:21:56;;;;;;;3.95;2.80;;;;;;;22.06;59.90;99885.28;2079972;28;20053;-55
2021/06/03 01:23:04;;;;;;;3.05;2.75;;;;;;;22.07;59.88;99889.72;2080035;28;20065;-54
2021/06/03 01:24:19;;;;;;;3.55;3.17;;;;;;;22.05;59.95;99881.69;2080261;28;20521;-54
2021/06/03 01:25:23;;;;;;;4.85;3.67;;;;;;;22.08;59.62;99887.88;2080440;28;20076;-54
2021/06/03 01:26:24;;;;;;;3.55;3.25;;;;;;;22.08;59.74;99882.38;2081301;28;20029;-55
2021/06/03 01:27:28;;;;;;;4.30;3.17;;;;;;;22.07;60.02;99884.25;2077333;28;20053;-54
2021/06/03 01:28:29;;;;;;;3.00;2.70;;;;;;;22.07;59.86;99895.22;2072480;28;20123;-55
2021/06/03 01:29:40;;;;;;;3.77;3.00;;;;;;;22.07;59.99;99884.25;2070203;28;20029;-55
2021/06/03 01:30:53;;;;;;;3.65;3.00;;;;;;;22.07;59.92;99877.91;2081378;28;20291;-54
2021/06/03 01:31:55;;;;;;;3.63;3.33;;;;;;;22.07;59.82;99884.25;2081405;28;20043;-55
2021/06/03 01:33:15;;;;;;;3.78;3.25;;;;;;;22.06;59.90;99877.06;2081117;28;20087;-55
2021/06/03 01:34:17;;;;;;;3.42;3.13;;;;;;;22.06;59.97;99882.53;2073545;28;20037;-56
2021/06/03 01:35:22;;;;;;;3.50;3.20;;;;;;;22.06;59.71;99882.53;2078694;28;20079;-55
2021/06/03 01:36:24;;;;;;;5.15;3.45;;;;;;;22.07;59.91;99883.41;2080066;28;20119;-53
2021/06/03 01:37:25;;;;;;;3.60;2.72;;;;;;;22.04;59.77;99881.84;2081245;28;20060;-54
2021/06/03 01:38:29;;;;;;;4.68;3.50;;;;;;;22.06;59.92;99888.03;2080621;28;20056;-54
2021/06/03 01:39:33;;;;;;;3.53;3.22;;;;;;;22.06;59.81;99882.53;2077152;28;20037;-55
2021/06/03 01:40:35;;;;;;;5.13;3.42;;;;;;;22.07;59.97;99883.41;2081153;28;20033;-54
2021/06/03 01:41:36;;;;;;;3.65;3.13;;;;;;;22.07;59.78;99878.75;2078127;28;20029;-54
2021/06/03 01:42:37;;;;;;;5.50;3.30;;;;;;;22.07;59.89;99884.25;2081921;28;20017;-54
2021/06/03 01:43:39;;;;;;;;;;;;;;;22.04;59.72;99879.13;2081006;28;20028;-55
2021/06/03 01:44:41;;;;;;;4.57;2.78;;;;;;;22.05;60.01;99878.09;2081410;28;19951;-55
2021/06/03 01:45:42;;;;;;;3.90;2.85;;;;;;;22.05;59.83;99880.84;2078464;28;20033;-55
2021/06/03 01:46:43;;;;;;;3.78;2.88;;;;;;;22.05;59.61;99886.34;2082411;28;20033;-55
2021/06/03 01:47:44;;;;;;;3.93;3.40;;;;;;;22.05;59.80;99886.34;2079013;28;20022;-54
2021/06/03 01:48:45;;;;;;;3.20;2.90;;;;;;;22.05;60.00;99880.84;2079820;28;20029;-55
2021/06/03 01:49:45;;;;;;;3.33;2.90;;;;;;;22.07;59.89;99886.13;2081309;28;20034;-55
2021/06/03 01:50:48;;;;;;;3.07;2.60;;;;;;;22.05;59.77;99883.59;2078868;28;20025;-55
2021/06/03 01:51:50;;;;;;;3.85;3.30;;;;;;;22.05;59.85;99883.59;2081672;28;20033;-55
2021/06/03 01:52:51;;;;;;;4.38;3.20;;;;;;;22.05;60.00;99880.84;2080003;28;20032;-55
2021/06/03 01:53:52;;;;;;;4.50;3.10;;;;;;;22.06;59.95;99879.78;2084177;28;20116;-53
2021/06/03 01:54:53;;;;;;;4.47;3.33;;;;;;;22.05;59.52;99880.84;2080474;28;20034;-54
2021/06/03 01:55:55;;;;;;;4.25;2.78;;;;;;;22.05;59.77;99886.34;2081077;28;20391;-53
2021/06/03 01:56:56;;;;;;;5.05;3.10;;;;;;;22.05;59.89;99884.44;2075973;28;20103;-55
2021/06/03 01:57:59;;;;;;;3.40;3.10;;;;;;;22.04;59.85;99884.59;2079252;28;20394;-54
2021/06/03 01:58:59;;;;;;;3.70;3.00;;;;;;;22.04;59.66;99879.97;2080545;28;20036;-55
2021/06/03 02:00:00;;;;;;;3.10;2.50;;;;;;;22.05;59.74;99880.84;2081687;28;20037;-54
2021/06/03 02:01:01;;;;;;;3.37;2.60;;;;;;;22.04;59.98;99879.13;2081151;28;20106;-55
2021/06/03 02:02:01;;;;;;;4.68;3.22;;;;;;;22.05;59.71;99875.34;2079459;28;20029;-54
2021/06/03 02:03:02;;;;;;;4.27;2.90;;;;;;;22.05;59.74;99886.34;2079475;28;20823;-56
2021/06/03 02:04:03;;;;;;;4.03;2.90;;;;;;;22.04;59.60;99879.97;2080641;28;20056;-54
2021/06/03 02:05:05;;;;;;;3.40;3.00;;;;;;;22.04;59.90;99879.13;2081375;28;20097;-54
2021/06/03 02:06:06;;;;;;;2.90;2.58;;;;;;;22.04;59.98;99876.38;2077330;28;20029;-54
2021/06/03 02:07:07;;;;;;;4.05;2.88;;;;;;;22.03;60.00;99871.91;2081431;28;20029;-53
2021/06/03 02:08:07;;;;;;;2.87;2.60;;;;;;;22.05;59.88;99878.09;2081086;28;20043;-55
2021/06/03 02:09:10;;;;;;;4.00;2.93;;;;;;;22.04;59.91;99879.97;2079319;28;20048;-55
2021/06/03 02:10:12;;;;;;;4.22;2.83;;;;;;;22.04;60.05;99873.63;2082952;28;20395;-53
2021/06/03 02:11:13;;;;;;;3.15;2.80;;;;;;;22.04;59.80;99873.63;2082762;28;20044;-56
2021/06/03 02:12:15;;;;;;;4.03;2.93;;;;;;;22.04;59.66;99873.63;2081389;28;20057;-55
2021/06/03 02:13:40;;;;;;;3.75;3.13;;;;;;;22.03;60.01;99871.91;2078914;28;20123;-54
2021/06/03 02:14:41;;;;;;;2.97;2.67;;;;;;;22.02;60.01;99872.94;2080640;28;20027;-55
2021/06/03 02:16:05;;;;;;;4.35;3.15;;;;;;;22.02;59.69;99882.06;2083626;28;20032;-53
2021/06/03 02:17:11;;;;;;;3.80;2.88;;;;;;;22.02;59.82;99882.06;2078973;28;20059;-55
2021/06/03 02:18:13;;;;;;;3.88;3.35;;;;;;;22.02;59.82;99875.69;2079530;28;20025;-55
2021/06/03 02:19:24;;;;;;;3.30;3.00;;;;;;;22.01;59.86;99873.97;2080851;28;20033;-53
2021/06/03 02:20:29;;;;;;;3.88;3.00;;;;;;;22.00;59.94;99875.88;2080324;28;20033;-54
2021/06/03 02:21:32;;;;;;;4.35;3.17;;;;;;;22.01;59.85;99874.84;2079761;28;20029;-54
2021/06/03 02:22:34;;;;;;;3.80;3.28;;;;;;;22.01;59.78;99883.06;2078709;28;20460;-55
2021/06/03 02:23:35;;;;;;;3.08;2.72;;;;;;;22.02;59.72;99881.16;2072447;28;20087;-54
2021/06/03 02:24:37;;;;;;;3.70;3.10;;;;;;;22.02;59.74;99875.69;2081038;28;20162;-55
2021/06/03 02:25:38;;;;;;;4.50;3.30;;;;;;;22.01;59.72;99879.47;2074004;28;20088;-55
2021/06/03 02:26:41;;;;;;;3.30;2.97;;;;;;;22.02;59.88;99881.16;2072027;28;20022;-55
2021/06/03 02:27:44;;;;;;;4.15;3.10;;;;;;;22.03;60.02;99880.16;2076911;28;20130;-56
2021/06/03 02:28:47;;;;;;;3.40;3.10;;;;;;;22.02;59.71;99878.44;2081464;28;20037;-56
2021/06/03 02:29:49;;;;;;;4.93;3.63;;;;;;;22.01;59.55;99880.31;2078664;28;20317;-55
2021/06/03 02:30:50;;;;;;;3.75;3.35;;;;;;;22.01;59.93;99876.72;2080931;28;20094;-55
2021/06/03 02:31:51;;;;;;;3.60;3.25;;;;;;;22.00;59.94;99875.03;2080830;28;20048;-55
2021/06/03 02:32:52;;;;;;;3.47;2.78;;;;;;;22.03;59.79;99880.16;2079978;28;20033;-55
2021/06/03 02:33:54;;;;;;;3.95;3.22;;;;;;;22.02;59.92;99875.69;2082008;28;20705;-54
2021/06/03 02:34:55;;;;;;;3.75;2.90;;;;;;;22.02;59.85;99878.44;2080862;28;20021;-55
2021/06/03 02:35:56;;;;;;;3.00;2.70;;;;;;;22.01;59.89;99873.97;2082126;28;20061;-55
2021/06/03 02:36:56;;;;;;;3.77;2.37;;;;;;;22.02;59.70;99881.16;2080922;28;20092;-55
2021/06/03 02:37:57;;;;;;;3.27;2.83;;;;;;;22.02;59.83;99878.44;2073578;28;20033;-55
2021/06/03 02:38:59;;;;;;;3.70;2.80;;;;;;;22.01;59.99;99877.56;2072934;28;20026;-54
2021/06/03 02:40:04;;;;;;;;;;;;;;;21.98;59.96;99882.56;2081745;28;20704;-55
2021/06/03 02:41:06;;;;;;;3.90;3.25;;;;;;;21.99;60.05;99881.53;2083904;28;19976;-54
2021/06/03 02:42:09;;;;;;;2.90;2.60;;;;;;;21.97;59.84;99878.09;2082666;28;20036;-55
2021/06/03 02:43:09;;;;;;;3.15;2.80;;;;;;;21.98;60.10;99875.19;2080429;28;20614;-55
2021/06/03 02:44:10;;;;;;;3.63;3.20;;;;;;;21.99;60.01;99876.03;2081850;28;20033;-55
2021/06/03 02:45:15;;;;;;;3.30;2.88;;;;;;;21.98;60.10;99879.81;2082263;28;20034;-55
2021/06/03 02:46:18;;;;;;;3.20;2.90;;;;;;;21.98;59.94;99875.19;2083419;28;20042;-54
2021/06/03 02:47:19;;;;;;;3.50;2.97;;;;;;;21.98;59.91;99879.81;2089483;28;20112;-54
2021/06/03 02:48:19;;;;;;;4.10;3.00;;;;;;;21.99;60.06;99878.78;2073516;28;20038;-55
2021/06/03 02:49:20;;;;;;;5.13;2.67;;;;;;;22.00;59.78;99880.50;2075708;28;20148;-55
2021/06/03 02:50:22;;;;;;;3.47;2.70;;;;;;;21.99;59.63;99873.28;2081223;28;20030;-55
2021/06/03 02:51:22;;;;;;;3.25;2.60;;;;;;;21.97;59.96;99872.59;2082569;28;20032;-55
2021/06/03 02:54:30;;;;;;;3.25;2.80;;;;;;;21.97;59.99;99867.13;2087507;28;20045;-55
2021/06/03 02:55:31;;;;;;;3.60;2.83;;;;;;;21.99;59.94;99876.03;2082236;28;20527;-56
2021/06/03 02:56:32;;;;;;;3.20;2.90;;;;;;;21.98;59.79;99877.09;2080653;28;20029;-54
2021/06/03 02:57:32;;;;;;;3.17;2.87;;;;;;;21.98;59.98;99871.59;2079025;28;20022;-55
2021/06/03 02:58:33;;;;;;;4.00;3.20;;;;;;;21.97;59.74;99869.84;2081357;28;20124;-53
2021/06/03 02:59:34;;;;;;;3.03;2.70;;;;;;;21.98;59.99;99868.84;2081578;28;20041;-55
2021/06/03 03:00:35;;;;;;;3.67;2.83;;;;;;;21.97;59.82;99872.59;2082486;28;20032;-53
2021/06/03 03:01:35;;;;;;;3.30;2.85;;;;;;;21.97;59.75;99867.97;2082712;28;20036;-55
2021/06/03 03:02:36;;;;;;;4.17;2.90;;;;;;;21.98;59.88;99869.69;2082422;28;20068;-55
2021/06/03 03:03:36;;;;;;;3.03;2.43;;;;;;;21.98;59.58;99872.44;2079084;28;20033;-55
2021/06/03 03:04:37;;;;;;;5.00;3.03;;;;;;;21.98;59.78;99877.09;2082806;28;20442;-54
2021/06/03 03:05:39;;;;;;;2.83;2.53;;;;;;;21.99;59.78;99870.53;2083164;28;20040;-55
2021/06/03 03:06:41;;;;;;;3.40;2.78;;;;;;;21.98;59.57;99868.84;2083831;28;20029;-55
2021/06/03 03:07:41;;;;;;;3.40;3.10;;;;;;;21.98;59.59;99874.34;2081383;28;20033;-53
2021/06/03 03:08:42;;;;;;;3.17;2.70;;;;;;;21.98;59.82;99866.09;2079729;28;20812;-55
2021/06/03 03:09:43;;;;;;;3.38;2.92;;;;;;;21.98;59.58;99868.84;2072430;28;20034;-55
2021/06/03 03:10:48;;;;;;;2.93;2.63;;;;;;;21.97;60.00;99872.59;2072590;28;20032;-55
2021/06/03 03:11:49;;;;;;;3.03;2.72;;;;;;;21.98;59.89;99868.84;2082250;28;20033;-55
2021/06/03 03:12:50;;;;;;;3.63;3.20;;;;;;;21.97;59.83;99867.13;2081889;28;20037;-54
2021/06/03 03:13:50;;;;;;;4.85;2.97;;;;;;;21.98;59.75;99874.34;2080893;28;20037;-55
2021/06/03 03:14:51;;;;;;;3.57;2.97;;;;;;;21.98;59.63;99868.84;2081944;28;20575;-56
2021/06/03 03:15:52;;;;;;;3.37;3.07;;;;;;;21.98;59.53;99869.69;2082470;28;20040;-55
2021/06/03 03:16:54;;;;;;;3.80;3.25;;;;;;;21.98;59.72;99875.19;2080812;28;20028;-56
2021/06/03 03:17:55;;;;;;;3.20;2.85;;;;;;;21.98;59.59;99871.59;2082073;28;20451;-55
2021/06/03 03:18:55;;;;;;;3.67;2.67;;;;;;;21.97;59.95;99872.59;2079750;28;20029;-55
2021/06/03 03:19:56;;;;;;;3.67;3.00;;;;;;;21.97;59.72;99867.97;2082299;28;20279;-54
2021/06/03 03:20:56;;;;;;;3.50;2.60;;;;;;;21.98;59.72;99868.84;2082019;28;20044;-55
2021/06/03 03:21:57;;;;;;;3.20;2.90;;;;;;;21.98;59.59;99874.34;2079754;28;20033;-54
2021/06/03 03:22:58;;;;;;;3.17;2.83;;;;;;;21.98;59.72;99866.94;2082609;28;20036;-56
2021/06/03 03:26:17;;;;;;;3.08;2.70;;;;;;;21.93;59.84;99872.09;2081726;28;20032;-54
2021/06/03 03:27:18;;;;;;;4.18;3.00;;;;;;;21.94;59.72;99870.22;2076470;28;20025;-54
2021/06/03 03:28:18;;;;;;;2.60;2.40;;;;;;;21.95;59.93;99869.16;2078158;28;20591;-54
2021/06/03 03:29:19;;;;;;;3.40;2.93;;;;;;;21.95;59.77;99871.91;2080827;28;20037;-54
2021/06/03 03:30:22;;;;;;;3.20;2.67;;;;;;;21.94;59.85;99867.47;2082030;28;20186;-53
2021/06/03 03:31:24;;;;;;;3.30;2.95;;;;;;;21.95;59.68;99869.16;2072964;28;20053;-55
2021/06/03 03:32:25;;;;;;;3.78;3.08;;;;;;;21.96;59.71;99865.41;2072620;28;20033;-52
2021/06/03 03:33:25;;;;;;;4.23;3.47;;;;;;;21.95;59.54;99869.16;2082396;28;20446;-55
2021/06/03 03:34:26;;;;;;;4.00;2.80;;;;;;;21.95;59.88;99863.69;2080852;28;20113;-54
2021/06/03 03:35:26;;;;;;;3.53;3.23;;;;;;;21.95;59.90;99863.69;2081303;28;20055;-55
2021/06/03 03:36:27;;;;;;;3.10;2.70;;;;;;;21.95;59.97;99863.69;2081178;28;20124;-55
2021/06/03 03:37:28;;;;;;;4.37;2.83;;;;;;;21.95;59.86;99863.69;2081690;28;20040;-53
2021/06/03 03:38:29;;;;;;;3.63;2.80;;;;;;;21.94;59.83;99861.97;2081924;28;20063;-53
2021/06/03 03:39:29;;;;;;;4.17;3.00;;;;;;;21.95;59.81;99855.44;2079786;28;20034;-54
2021/06/03 03:40:30;;;;;;;4.43;2.73;;;;;;;21.93;59.79;99861.13;2078675;28;20431;-54
2021/06/03 03:41:31;;;;;;;3.20;2.60;;;;;;;21.94;59.98;99859.25;2082534;28;20044;-54
2021/06/03 03:42:32;;;;;;;3.95;3.03;;;;;;;21.94;59.93;99853.75;2081652;28;20327;-54
2021/06/03 03:43:32;;;;;;;3.37;2.67;;;;;;;21.93;59.69;99852.06;2080593;28;20034;-56
2021/06/03 03:44:33;;;;;;;3.33;2.93;;;;;;;21.95;59.75;99859.06;2081215;28;20029;-53
2021/06/03 03:45:34;;;;;;;4.03;2.60;;;;;;;21.93;59.60;99855.66;2079891;28;20412;-56
2021/06/03 03:46:36;;;;;;;;;;;;;;;21.92;59.67;99869.53;2074906;28;20458;-56
2021/06/03 03:47:37;;;;;;;2.53;2.30;;;;;;;21.92;59.73;99858.56;2079870;28;19912;-55
2021/06/03 03:49:56;;;;;;;4.57;2.65;;;;;;;21.93;60.02;99860.28;2081843;28;20034;-57
2021/06/03 03:50:57;;;;;;;6.10;3.30;;;;;;;21.93;59.93;99860.28;2078615;28;20420;-55
2021/06/03 03:52:00;;;;;;;3.13;2.83;;;;;;;21.94;59.85;99870.22;2087653;28;20029;-54
2021/06/03 03:53:00;;;;;;;2.90;2.55;;;;;;;21.94;59.71;99868.31;2079143;28;20137;-54
2021/06/03 03:54:01;;;;;;;3.43;2.83;;;;;;;21.94;59.82;99867.47;2081469;28;20021;-54
2021/06/03 03:55:03;;;;;;;2.97;2.67;;;;;;;21.94;59.65;99870.22;2080859;28;20128;-55
2021/06/03 03:56:04;;;;;;;3.00;2.70;;;;;;;21.94;59.74;99868.31;2081129;28;20036;-56
2021/06/03 03:57:05;;;;;;;2.50;2.30;;;;;;;21.94;59.66;99868.31;2081609;28;20081;-55
2021/06/03 03:58:06;;;;;;;3.10;2.80;;;;;;;21.94;59.70;99868.31;2080661;28;20335;-54
2021/06/03 03:59:06;;;;;;;2.90;2.57;;;;;;;21.94;59.65;99873.81;2080048;28;20037;-55
2021/06/03 04:00:12;;;;;;;3.17;2.50;;;;;;;21.94;59.60;99868.31;2081817;28;20033;-55
2021/06/03 04:01:13;;;;;;;2.83;2.53;;;;;;;21.92;59.72;99866.78;2080283;28;21542;-53
2021/06/03 04:02:13;;;;;;;3.00;2.70;;;;;;;21.94;59.58;99873.81;2082124;28;20026;-53
2021/06/03 04:03:14;;;;;;;3.70;2.67;;;;;;;21.93;59.74;99871.25;2081010;28;20079;-55
2021/06/03 04:04:14;;;;;;;2.77;2.57;;;;;;;21.92;59.69;99866.78;2081539;28;20029;-54
2021/06/03 04:05:15;;;;;;;2.73;2.50;;;;;;;21.94;59.90;99872.97;2079739;28;20272;-55
2021/06/03 04:06:16;;;;;;;4.17;3.10;;;;;;;21.93;59.64;99874.00;2079519;28;20036;-55
2021/06/03 04:07:16;;;;;;;3.03;2.70;;;;;;;21.93;59.85;99872.09;2082839;28;20036;-54
2021/06/03 04:08:17;;;;;;;2.93;2.47;;;;;;;21.93;59.68;99872.09;2081644;28;20087;-56
2021/06/03 04:09:17;;;;;;;3.93;2.70;;;;;;;21.93;59.72;99874.00;2081878;28;20040;-53
2021/06/03 04:10:20;;;;;;;3.10;2.60;;;;;;;21.92;60.00;99864.88;2080687;28;20033;-55
2021/06/03 04:11:24;;;;;;;2.75;2.53;;;;;;;21.94;59.61;99871.06;2071640;28;20034;-55
2021/06/03 04:12:25;;;;;;;3.80;2.95;;;;;;;21.93;59.76;99871.25;2073535;28;20030;-55
2021/06/03 04:13:26;;;;;;;3.77;2.90;;;;;;;21.93;59.67;99871.25;2079252;28;20022;-54
2021/06/03 04:14:27;;;;;;;3.45;2.80;;;;;;;21.93;59.85;99865.78;2082033;28;20104;-54
2021/06/03 04:15:28;;;;;;;2.70;2.30;;;;;;;21.93;59.90;99874.00;2081222;28;20056;-54
2021/06/03 04:16:29;;;;;;;3.05;2.78;;;;;;;21.93;59.80;99865.78;2085017;28;20032;-55
2021/06/03 04:17:29;;;;;;;2.67;2.47;;;;;;;21.93;59.80;99874.00;2081186;28;20120;-55
2021/06/03 04:18:30;;;;;;;4.07;2.70;;;;;;;21.93;59.88;99871.25;2079436;28;20416;-54
2021/06/03 04:19:30;;;;;;;2.73;2.53;;;;;;;21.91;59.96;99868.69;2073919;28;20030;-55
2021/06/03 04:20:33;;;;;;;3.43;2.50;;;;;;;21.92;59.67;99869.53;2079433;28;20260;-54
2021/06/03 04:21:34;;;;;;;2.95;2.50;;;;;;;21.91;59.78;99865.09;2080571;28;20447;-55
2021/06/03 04:22:35;;;;;;;4.73;2.60;;;;;;;21.91;59.80;99873.31;2082961;28;20048;-55
2021/06/03 04:23:35;;;;;;;3.50;2.57;;;;;;;21.91;59.70;99876.06;2081003;28;20022;-55
2021/06/03 04:24:35;;;;;;;2.73;2.40;;;;;;;21.89;59.74;99865.25;2081658;28;20606;-55
2021/06/03 04:25:36;;;;;;;3.10;2.80;;;;;;;21.89;59.84;99865.25;2081223;28;20060;-55
2021/06/03 04:26:36;;;;;;;2.80;2.50;;;;;;;21.89;59.79;99864.41;2071051;28;20037;-56
2021/06/03 04:27:38;;;;;;;3.03;2.47;;;;;;;21.89;60.07;99864.41;2072941;28;20017;-55
2021/06/03 04:28:39;;;;;;;3.88;2.30;;;;;;;21.87;60.04;99860.97;2079166;28;20036;-55
2021/06/03 04:29:40;;;;;;;3.77;3.17;;;;;;;21.88;59.87;99868.16;2081306;28;20056;-54
2021/06/03 04:30:42;;;;;;;3.15;2.83;;;;;;;21.87;60.23;99866.44;2078910;28;20405;-55
2021/06/03 04:31:43;;;;;;;2.55;2.35;;;;;;;21.87;60.17;99866.44;2072392;28;20028;-53
2021/06/03 04:32:43;;;;;;;3.90;2.83;;;;;;;21.87;60.16;99877.44;2076542;28;20464;-52
2021/06/03 04:33:44;;;;;;;3.50;2.30;;;;;;;21.87;60.07;99866.44;2081506;28;20450;-55
2021/06/03 04:34:44;;;;;;;3.50;2.90;;;;;;;21.87;60.16;99869.19;2083415;28;20017;-55
2021/06/03 04:35:45;;;;;;;2.93;2.43;;;;;;;21.87;60.14;99872.78;2080299;28;20029;-54
2021/06/03 04:36:45;;;;;;;3.07;2.50;;;;;;;21.86;60.11;99875.72;2081611;28;20029;-55
2021/06/03 04:37:46;;;;;;;3.80;2.57;;;;;;;21.86;59.95;99870.25;2083906;28;20098;-55
2021/06/03 04:38:47;;;;;;;3.00;2.63;;;;;;;21.87;60.21;99866.44;2081033;28;20025;-55
2021/06/03 04:39:48;;;;;;;3.57;2.50;;;;;;;21.84;60.17;99860.28;2072945;28;20025;-55
2021/06/03 04:40:48;;;;;;;3.07;2.73;;;;;;;21.84;60.19;99865.75;2071770;28;20021;-55
2021/06/03 04:41:49;;;;;;;3.47;2.73;;;;;;;21.86;59.96;99865.59;2081051;28;20041;-56
2021/06/03 04:42:50;;;;;;;2.67;2.47;;;;;;;21.84;60.09;99871.25;2081634;28;20029;-56
2021/06/03 04:43:51;;;;;;;2.85;2.47;;;;;;;21.83;60.08;99872.28;2080172;28;20055;-53
2021/06/03 04:44:51;;;;;;;3.23;2.93;;;;;;;21.83;60.02;99874.19;2081384;28;20033;-55
2021/06/03 04:45:52;;;;;;;3.33;2.53;;;;;;;21.84;60.05;99874.00;2081416;28;20332;-54
2021/06/03 04:46:52;;;;;;;2.97;2.67;;;;;;;21.83;59.89;99872.28;2081890;28;20072;-55
2021/06/03 04:47:53;;;;;;;3.30;2.70;;;;;;;21.84;59.91;99881.38;2081545;28;20501;-53
2021/06/03 04:48:54;;;;;;;3.00;2.70;;;;;;;21.84;59.89;99874.00;2080685;28;20025;-55
2021/06/03 04:49:55;;;;;;;2.88;2.55;;;;;;;21.83;59.63;99880.53;2081646;28;20025;-55
2021/06/03 04:50:56;;;;;;;3.80;2.80;;;;;;;21.83;59.99;99877.78;2083602;28;20040;-55
2021/06/03 04:52:24;;;;;;;2.45;2.15;;;;;;;21.84;60.02;99881.38;2080393;28;20442;-56
2021/06/03 04:53:18;;;;;;;3.20;2.60;;;;;;;21.84;59.79;99879.47;2079487;28;20051;-55
2021/06/03 04:54:18;;;;;;;2.83;2.42;;;;;;;21.87;59.67;99872.78;2081029;28;20443;-58
2021/06/03 04:55:21;;;;;;;4.33;2.90;;;;;;;21.91;59.82;99884.28;2078957;28;20136;-59
2021/06/03 04:56:22;;;;;;;2.95;2.55;;;;;;;21.89;59.66;99880.84;2081886;28;20025;-59
2021/06/03 04:57:23;;;;;;;3.67;2.50;;;;;;;21.92;59.99;99880.50;2079129;28;20075;-59
2021/06/03 04:58:24;;;;;;;3.00;2.70;;;;;;;21.92;59.60;99883.25;2081512;28;20029;-58